Weather observations for the past three days for
Mackinac Island Airport
Imperial (Metric)
Date Time (edt) Wind (mph) Vis. (mi.) Weather Sky Cond. Temperature (ºF) Relative Humidity Wind Chill (°F) Heat Index (°F) Pressure Precipitation (in)
Air Dwpt 6 hour altimeter (in) sea level (mb) 1 hr 3 hr 6 hr
Max. Min.
06 23:15 W 7 10.00 Overcast OVC075 37.4 30.2 75% 33 29.91 0.0
06 22:55 W 7 10.00 Overcast OVC075 37.4 28.4 70% 33 29.91 0.0
06 22:35 W 8 10.00 Overcast OVC075 37.4 28.4 70% 32 29.91 0.0
06 22:16 W 10 10.00 Overcast OVC075 37.4 28.4 70% 31 29.91 0.0
06 21:55 W 10 10.00 Overcast OVC075 39.2 28.4 65% 33 29.9 0.0
06 21:35 W 10 10.00 Overcast OVC075 39.2 30.2 70% 33 29.9 0.0
06 21:15 W 8 10.00 Overcast OVC075 39.2 30.2 70% 34 29.9 0.0
06 20:55 W 7 10.00 Overcast OVC075 39.2 28.4 65% 35 29.9 0.0
06 20:35 W 7 10.00 Overcast OVC075 39.2 28.4 65% 35 29.9 0.0
06 20:15 W 7 10.00 Overcast FEW055 OVC065 39.2 28.4 65% 35 29.89 0.0
06 19:56 W 8 10.00 Overcast BKN060 OVC075 39.2 28.4 65% 34 29.89 0.0
06 19:35 SW 8 10.00 Overcast OVC060 39.2 26.6 61% 34 29.89 0.0
06 19:15 W 9 10.00 Overcast OVC060 39.2 26.6 61% 34 29.89 0.0
06 18:55 W 10 10.00 Overcast OVC060 39.2 26.6 61% 33 29.89 0.0
06 18:35 W 9 10.00 Overcast OVC060 39.2 24.8 56% 34 29.89 0.0
06 18:15 W 9 10.00 Overcast OVC060 39.2 24.8 56% 34 29.89 0.0
06 17:55 SW 14 G 18 10.00 Overcast OVC060 41 24.8 53% 34 29.89 0.0
06 17:36 W 10 10.00 Overcast OVC060 41 23 49% 35 29.89 0.0
06 17:15 W 13 10.00 Overcast OVC060 41 24.8 53% 34 29.88 0.0
06 16:55 W 13 10.00 Overcast OVC060 41 23 49% 34 29.89 0.0
06 16:35 W 13 10.00 Overcast FEW048 OVC060 41 23 49% 34 29.89 0.0
06 16:15 W 14 10.00 Overcast BKN048 OVC060 41 23 49% 34 29.89 0.0
06 15:55 W 13 10.00 Overcast OVC048 41 24.8 53% 34 29.89 0.0
06 15:35 W 13 G 21 10.00 Overcast OVC050 41 23 49% 34 29.89 0.0
06 15:16 W 16 10.00 Overcast FEW041 OVC050 42.8 24.8 49% 36 29.88 0.0
06 14:56 W 15 G 22 10.00 Overcast SCT043 OVC050 41 23 49% 34 29.88 0.0
06 14:35 W 13 G 22 10.00 Overcast SCT041 SCT047 OVC050 41 23 49% 34 29.88 0.0
06 14:15 W 13 10.00 Overcast SCT039 SCT045 OVC050 42.8 24.8 49% 37 29.88 0.0
06 13:55 W 15 10.00 Overcast FEW041 OVC050 42.8 23 42.8 36.9 46% 36 29.88 0.0
06 13:35 W 18 10.00 Overcast FEW036 OVC048 41 23 49% 33 29.89 0.0
06 13:15 W 14 G 18 10.00 Overcast OVC050 41 24.8 53% 34 29.89 0.0
06 12:56 W 9 G 17 10.00 Overcast OVC050 41 24.8 53% 36 29.89 0.0
06 12:36 W 13 G 18 10.00 Overcast OVC050 41 24.8 53% 34 29.89 0.0
06 12:15 W 15 G 22 10.00 Overcast FEW037 OVC050 41 24.8 53% 34 29.89 0.0
06 11:55 W 18 10.00 Mostly Cloudy SCT042 BKN050 42.8 24.8 49% 35 29.88 0.0
06 11:35 W 20 10.00 Mostly Cloudy SCT042 BKN048 BKN055 42.8 24.8 49% 35 29.88 0.0
06 11:15 W 16 10.00 Overcast FEW042 OVC055 41 23 49% 33 29.88 0.0
06 10:55 W 15 10.00 Overcast OVC055 41 24.8 53% 34 29.87 0.0
06 10:35 W 10 10.00 Overcast OVC055 41 28.4 61% 35 29.87 0.0
06 10:16 W 14 10.00 Overcast OVC055 39.2 26.6 61% 32 29.87 0.0
06 09:55 W 15 10.00 Overcast OVC055 39.2 26.6 61% 31 29.87 0.0
06 09:35 W 16 10.00 Overcast OVC055 39.2 26.6 61% 31 29.87 0.0
06 09:15 W 18 10.00 Overcast OVC055 39.2 26.6 61% 31 29.87 0.0
06 08:55 W 14 10.00 Overcast OVC049 39.2 26.6 61% 32 29.86 0.0
06 08:35 W 15 10.00 Overcast OVC049 37.4 26.6 65% 29 29.86 0.0
06 08:15 W 8 10.00 Overcast OVC049 37.4 28.4 70% 32 29.85 0.0
06 07:56 W 9 10.00 Overcast OVC049 37.4 28.4 70% 31 29.85 0.0
06 07:35 W 9 10.00 Overcast OVC049 35.6 26.6 70% 29 29.84 0.0
06 07:15 W 5 10.00 Overcast OVC049 35.6 28.4 75% 32 29.84 0.0
06 06:55 W 7 10.00 Overcast OVC049 35.6 26.6 70% 31 29.83 0.0
06 06:35 W 7 10.00 Overcast OVC047 33.8 26.6 75% 28 29.83 0.0
06 06:15 W 7 10.00 Mostly Cloudy BKN047 33.8 26.6 75% 28 29.83 0.0
06 05:55 W 9 10.00 Partly Cloudy SCT047 33.8 26.6 75% 27 29.82 0.0
06 05:36 W 9 10.00 Partly Cloudy SCT047 33.8 26.6 75% 27 29.83 0.0
06 05:15 W 9 10.00 Overcast OVC049 33.8 26.6 75% 27 29.83 0.0
06 04:55 W 7 10.00 Overcast OVC049 33.8 26.6 75% 28 29.83 0.0
06 04:35 W 6 10.00 Mostly Cloudy BKN049 33.8 26.6 75% 29 29.83 0.0
06 04:15 W 7 10.00 Fair CLR 33.8 24.8 70% 28 29.83 0.0
06 03:55 W 6 10.00 A Few Clouds FEW060 33.8 24.8 70% 29 29.83 0.0
06 03:35 W 6 10.00 A Few Clouds FEW060 33.8 24.8 70% 29 29.83 0.0
06 03:16 W 7 10.00 Mostly Cloudy BKN060 33.8 24.8 70% 28 29.84 0.0
06 02:55 NW 9 10.00 Overcast OVC070 33.8 24.8 70% 27 29.84 0.0
06 02:35 W 9 10.00 Overcast OVC070 33.8 23 65% 27 29.84 0.0
06 02:15 W 8 10.00 Overcast OVC070 35.6 23 60% 30 29.84 0.0
06 01:55 W 8 10.00 Overcast OVC070 35.6 23 39.7 34.7 60% 30 29.84 0.0
06 01:35 W 7 10.00 Overcast OVC070 35.6 23 60% 31 29.84 0.0
06 01:15 NW 5 10.00 Overcast OVC060 35.6 23 60% 32 29.84 0.0
06 00:56 NW 5 10.00 Overcast OVC060 35.6 24.8 65% 32 29.84 0.0
06 00:35 NW 5 10.00 Overcast OVC060 35.6 24.8 65% 32 29.83 0.0
06 00:15 NW 9 10.00 Overcast OVC060 35.6 24.8 65% 29 29.82 0.0
05 23:55 NW 9 10.00 Overcast OVC060 35.6 24.8 65% 29 29.82 0.0
05 23:35 NW 9 10.00 Overcast FEW045 OVC060 35.6 23 60% 29 29.82 0.0
05 23:15 NW 10 G 17 10.00 Overcast SCT043 BKN050 OVC060 35.6 24.8 65% 29 29.82 0.0
05 22:55 N 10 10.00 Overcast BKN039 OVC050 37.4 24.8 60% 31 29.82 0.0
05 22:36 N 8 10.00 Overcast OVC039 37.4 26.6 65% 32 29.81 0.0
05 22:15 N 7 G 17 10.00 Overcast OVC037 37.4 26.6 65% 33 29.81 0.0
05 21:55 N 13 10.00 Overcast BKN037 OVC070 37.4 26.6 65% 30 29.8 0.0
05 21:35 N 10 10.00 Overcast BKN037 OVC070 37.4 26.6 65% 31 29.79 0.0
05 21:15 N 12 G 16 10.00 Overcast SCT035 OVC070 37.4 30.2 75% 30 29.79 0.0
05 20:55 N 9 10.00 Overcast SCT035 OVC070 37.4 30.2 75% 31 29.78 0.0
05 20:35 N 12 10.00 Overcast OVC035 37.4 30.2 75% 30 29.78 0.0
05 20:16 N 12 10.00 Overcast OVC033 39.2 30.2 70% 33 29.78 0.0
05 19:55 N 9 10.00 Overcast BKN030 OVC039 39.2 30.2 48.4 39.2 70% 34 29.77 0.0
05 19:35 NE 9 10.00 Overcast SCT028 OVC039 39.2 32 75% 34 29.77 0.0
05 19:15 NE 10 10.00 Overcast OVC028 39.2 32 75% 33 29.76 0.0
05 18:55 NE 9 10.00 Mostly Cloudy BKN026 BKN033 39.2 32 75% 34 29.76 0.0
05 18:35 N 10 G 18 10.00 Fair CLR 41 33.8 76% 35 29.75 0.0
05 18:15 N 15 10.00 Fair CLR 42.8 33.8 71% 36 29.75 0.0
05 17:56 NE 14 10.00 Fair CLR 42.8 33.8 71% 36 29.74 0.0
05 17:35 NW 8 10.00 Partly Cloudy SCT075 46.4 30.2 53% 43 29.73 0.0
05 17:15 NW 10 G 17 10.00 Mostly Cloudy BKN075 48.2 32 54% 44 29.73 0.0
05 16:55 W 12 10.00 A Few Clouds FEW065 46.4 32 57% 42 29.72 0.0
05 16:35 W 16 G 23 10.00 A Few Clouds FEW065 46.4 28.4 50% 40 29.71 0.0
05 16:15 W 15 G 24 10.00 Fair CLR 46.4 28.4 50% 41 29.72 0.0
05 15:55 W 16 G 24 10.00 Partly Cloudy SCT075 46.4 28.4 50% 40 29.71 0.0
05 15:36 SW 15 G 23 10.00 Partly Cloudy SCT075 46.4 30.2 53% 41 29.71 0.0
05 15:15 SW 12 G 24 10.00 A Few Clouds FEW085 46.4 30.2 53% 42 29.7 0.0
05 14:55 SW 13 G 23 10.00 A Few Clouds FEW085 46.4 30.2 53% 41 29.7 0.0
05 14:35 W 14 G 22 10.00 Fair CLR 46.4 30.2 53% 41 29.69 0.0
05 14:15 W 13 G 18 10.00 Fair CLR 46.4 32 57% 41 29.69 0.0
05 13:55 SW 14 G 22 10.00 A Few Clouds FEW085 44.6 30.2 46.6 38.8 57% 39 29.69 0.0
05 13:35 SW 16 G 21 10.00 A Few Clouds FEW085 46.4 30.2 53% 40 29.68 0.0
05 13:16 SW 14 G 20 10.00 Fair CLR 44.6 32 61% 39 29.68 0.0
05 12:55 SW 12 G 22 10.00 Fair CLR 44.6 30.2 57% 39 29.68 0.0
05 12:35 SW 9 G 17 10.00 Fair CLR 44.6 32 61% 40 29.68 0.0
05 12:15 SW 14 10.00 Mostly Cloudy FEW060 BKN075 44.6 32 61% 39 29.68 0.0
05 11:55 SW 15 G 18 10.00 Overcast OVC075 42.8 30.2 61% 36 29.68 0.0
05 11:35 W 10 G 23 10.00 Mostly Cloudy BKN075 42.8 30.2 61% 38 29.68 0.0
05 11:15 SW 13 G 21 10.00 Partly Cloudy SCT075 42.8 32 66% 37 29.67 0.0
05 10:56 SW 15 G 22 10.00 Fair CLR 41 32 70% 34 29.66 0.0
05 10:35 SW 12 G 17 10.00 Mostly Cloudy BKN070 41 30.2 66% 35 29.65 0.0
05 10:15 SW 13 G 20 10.00 Overcast OVC070 39.2 30.2 70% 32 29.64 0.0
05 09:55 W 13 G 21 10.00 Overcast OVC070 41 28.4 61% 34 29.64 0.0
05 09:35 W 18 10.00 Overcast OVC070 41 28.4 61% 33 29.62 0.0
05 09:15 W 10 10.00 Partly Cloudy SCT070 42.8 28.4 57% 38 29.62 0.0
05 08:55 NW 12 10.00 Fair CLR 41 26.6 57% 35 29.62 0.0
05 08:36 W 12 10.00 Fair CLR 39.2 26.6 61% 33 29.62 0.0
05 08:15 NW 8 10.00 Fair CLR 39.2 28.4 65% 34 29.61 0.0
05 07:55 NW 12 G 16 10.00 Fair CLR 39.2 28.4 45.1 37.9 65% 33 29.6 0.0
05 07:35 W 10 10.00 A Few Clouds FEW075 39.2 28.4 65% 33 29.6 0.0
05 07:15 W 9 10.00 Partly Cloudy SCT075 39.2 28.4 65% 34 29.6 0.0
05 06:55 W 7 10.00 Overcast OVC075 39.2 28.4 65% 35 29.58 0.0
05 06:35 W 8 10.00 Overcast OVC075 39.2 28.4 65% 34 29.57 0.0
05 06:16 W 8 10.00 Overcast OVC075 37.4 30.2 75% 32 29.57 0.0
05 05:55 NW 6 10.00 Mostly Cloudy BKN075 37.4 30.2 75% 33 29.56 0.0
05 05:35 W 10 G 16 10.00 A Few Clouds FEW075 39.2 30.2 70% 33 29.55 0.0
05 05:15 W 12 10.00 Fair CLR 39.2 30.2 70% 33 29.55 0.0
05 04:55 W 9 10.00 Fair CLR 41 30.2 66% 36 29.55 0.0
05 04:35 NW 10 10.00 Mostly Cloudy BKN070 41 30.2 66% 35 29.54 0.0
05 03:56 NW 12 G 20 10.00 Mostly Cloudy BKN070 42.8 30.2 61% 37 29.53 0.0
05 03:35 W 12 10.00 Mostly Cloudy BKN070 BKN095 42.8 30.2 61% 37 29.53 0.0
05 03:15 NW 15 G 20 10.00 Overcast OVC070 42.8 30.2 61% 36 29.52 0.0
05 02:55 NW 13 G 26 10.00 Overcast OVC070 44.6 30.2 57% 39 29.52 0.0
05 02:35 NW 15 G 22 10.00 Overcast OVC060 44.6 30.2 57% 38 29.52 0.0
05 02:15 NW 12 G 17 10.00 Overcast OVC060 44.6 30.2 57% 39 29.52 0.0
05 01:55 W 12 G 20 10.00 Overcast OVC060 44.6 30.2 49.1 45 57% 39 29.51 0.0
05 01:36 NW 12 G 18 10.00 Overcast OVC060 44.6 30.2 57% 39 29.51 0.0
05 01:15 NW 12 G 16 10.00 Overcast OVC060 44.6 30.2 57% 39 29.5 0.0
05 00:55 NW 10 G 17 10.00 Overcast OVC060 44.6 30.2 57% 40 29.49 0.0
05 00:35 NW 10 G 17 10.00 Overcast OVC060 44.6 32 61% 40 29.49 0.0
05 00:15 NW 9 G 16 10.00 Overcast OVC060 46.4 32 57% 42 29.49 0.0
04 23:55 NW 9 10.00 Overcast OVC060 46.4 33.8 62% 42 29.49 0.0
04 23:35 N 9 10.00 Overcast OVC060 46.4 33.8 62% 42 29.48 0.0
04 23:16 N 10 10.00 Overcast OVC060 46.4 33.8 62% 42 29.48 0.0
04 22:55 N 8 10.00 Overcast BKN050 OVC120 46.4 35.6 66% 43 29.47 0.0
04 22:35 N 8 10.00 Overcast BKN050 BKN070 OVC120 46.4 35.6 66% 43 29.46 0.0
04 22:15 N 8 10.00 Overcast BKN050 OVC070 46.4 35.6 66% 43 29.46 0.0
04 21:55 N 9 10.00 Overcast OVC050 46.4 35.6 66% 42 29.46 0.0
04 21:35 N 10 G 16 10.00 Overcast BKN046 BKN055 OVC085 46.4 35.6 66% 42 29.45 0.0
04 21:15 N 10 10.00 Overcast FEW047 SCT075 OVC085 46.4 35.6 66% 42 29.44 0.0
04 20:56 N 13 G 17 10.00 Overcast OVC075 48.2 39.2 71% 43 29.43 0.0
04 20:35 N 9 10.00 Light Rain BKN060 OVC070 46.4 41 82% 42 29.43 0.0
04 20:15 N 9 10.00 Light Rain OVC070 48.2 41 76% 45 29.42 0.0
04 19:55 N 10 10.00 Light Rain OVC080 48.2 41 67.1 49.1 76% 44 29.4 0.0
04 19:35 N 12 10.00 Mostly Cloudy BKN075 50 41 71% 46 29.4 0.0
04 19:15 N 13 10.00 Light Rain FEW038 BKN075 BKN095 50 42.8 76% 46 29.38 0.0
04 18:55 N 8 10.00 Light Rain FEW065 BKN075 OVC095 50 41 71% 47 29.38 0.0
04 18:36 N 13 10.00 Mostly Cloudy BKN085 BKN095 51.8 41 67% 29.36 0.0
04 18:15 N 15 G 20 10.00 Mostly Cloudy BKN085 BKN120 53.6 41 63% 29.35 0.0
04 17:55 NW 8 10.00 Partly Cloudy FEW095 SCT120 53.6 37.4 54% 29.34 0.0
04 17:35 W 14 G 25 10.00 Mostly Cloudy BKN095 BKN120 53.6 37.4 54% 29.32 0.0
04 17:15 W 20 G 28 10.00 Overcast BKN085 OVC090 51.8 37.4 58% 29.32 0.0
04 16:55 W 15 G 22 10.00 Overcast OVC085 51.8 37.4 58% 29.32 0.0
04 16:35 W 25 G 31 10.00 Overcast and Breezy OVC085 55.4 35.6 47% 29.31 0.0
04 16:16 W 18 G 25 10.00 Overcast OVC085 57.2 35.6 44% 29.3 0.0
04 15:55 SW 20 G 30 10.00 Mostly Cloudy SCT085 BKN120 59 37.4 45% 29.29 0.0
04 15:35 SW 22 G 36 10.00 Mostly Cloudy and Breezy BKN110 64.4 33.8 32% 29.29 0.0
04 15:15 SW 26 G 40 10.00 Light Rain and Windy FEW055 BKN100 OVC120 62.6 35.6 37% 29.29 0.0
04 14:55 SW 28 G 43 10.00 Mostly Cloudy and Windy FEW065 SCT095 BKN120 64.4 33.8 32% 29.29 0.0
04 14:35 SW 22 G 33 10.00 Overcast and Breezy FEW065 BKN095 OVC110 64.4 33.8 32% 29.29 0.0
04 14:15 SW 24 G 36 10.00 Overcast and Breezy FEW060 FEW075 OVC095 66.2 33.8 30% 29.29 0.0
04 13:56 SW 17 G 35 10.00 Partly Cloudy SCT095 SCT120 66.2 33.8 30% 29.29 0.0
04 13:35 SW 24 G 37 10.00 Fair and Breezy CLR 68 33.8 28% 29.28 0.0
04 13:15 SW 21 G 32 10.00 Fair and Breezy CLR 66.2 33.8 30% 29.3 0.0
04 12:55 SW 20 G 31 10.00 Fair CLR 64.4 33.8 32% 29.31 0.0
04 12:35 SW 17 G 33 10.00 Fair CLR 64.4 33.8 32% 29.33 0.0
04 12:15 SW 17 G 28 10.00 Fair CLR 62.6 35.6 37% 29.34 0.0
04 11:55 SW 15 G 23 10.00 Fair CLR 60.8 35.6 39% 29.35 0.0
04 11:36 S 14 G 21 10.00 Fair CLR 60.8 39.2 45% 29.37 0.0
04 11:15 Vrbl 7 10.00 Fair CLR 57.2 41 55% 29.38 0.0
04 10:55 S 8 G 16 10.00 Fair CLR 55.4 41 59% 29.39 0.0
04 10:35 S 14 G 17 10.00 Fair CLR 53.6 39.2 58% 29.4 0.0
04 10:15 S 9 10.00 Fair CLR 51.8 41 67% 29.41 0.0
04 09:55 S 9 10.00 Fair CLR 50 41 71% 47 29.42 0.0
04 09:35 S 10 10.00 Fair CLR 48.2 41 76% 44 29.43 0.0
04 09:16 SE 8 10.00 Fair CLR 48.2 42.8 82% 45 29.44 0.0
04 08:55 Vrbl 5 10.00 Fair CLR 48.2 41 76% 47 29.45 0.0
04 08:35 S 6 10.00 Fair CLR 46.4 41 82% 44 29.46 0.0
04 08:15 SE 5 10.00 Fair CLR 46.4 41 82% 45 29.47 0.0
04 07:55 SE 8 10.00 Fair CLR 44.6 41 45.1 36.1 87% 41 29.47 0.0
04 07:35 S 9 10.00 Fair CLR 44.6 41 87% 40 29.47 0.0
04 07:15 S 7 10.00 Fair CLR 42.8 41 93% 39 29.48 0.0
04 06:56 S 8 10.00 Fair CLR 42.8 41 93% 39 29.48 0.0
04 06:35 S 10 10.00 Fair CLR 41 39.2 93% 35 29.49 0.0
04 06:15 S 13 10.00 Fair CLR 42.8 39.2 87% 37 29.49 0.0
04 05:55 S 12 10.00 Fair CLR 42.8 39.2 87% 37 29.49 0.0
04 05:35 S 12 10.00 Fair CLR 42.8 41 93% 37 29.5 0.0
04 05:15 S 10 10.00 Fair CLR 42.8 39.2 87% 38 29.51 0.0
04 04:55 S 10 10.00 Fair CLR 42.8 39.2 87% 38 29.51 0.0
04 04:36 S 12 10.00 Fair CLR 41 39.2 93% 35 29.52 0.0
04 04:15 S 10 6.00 Fog/Mist CLR 37.4 37.4 100% 31 29.53 0.0
04 03:55 SW 8 4.00 Fog/Mist CLR 37.4 35.6 93% 32 29.54 0.0
04 03:35 SW 7 10.00 Fair CLR 39.2 37.4 93% 35 29.55 0.0
04 03:15 SW 9 10.00 Fair CLR 41 39.2 93% 36 29.56 0.0
04 02:55 SW 9 10.00 Fair CLR 44.6 39.2 81% 40 29.56 0.0
04 02:35 SW 13 G 20 10.00 Fair CLR 42.8 39.2 87% 37 29.56 0.0
04 02:16 SW 14 G 21 10.00 Fair CLR 42.8 39.2 87% 36 29.58 0.0
04 01:55 SW 12 10.00 Fair CLR 42.8 39.2 44.2 35.8 87% 37 29.59 0.0
04 01:35 W 12 10.00 Fair CLR 41 37.4 87% 35 29.59 0.0
04 01:15 SW 9 10.00 Fair CLR 41 39.2 93% 36 29.59 0.0
04 00:55 SW 10 7.00 Fog/Mist CLR 37.4 37.4 100% 31 29.59 0.0
04 00:35 SW 9 2.00 Fog/Mist CLR 35.6 35.6 100% 29 29.58 0.0
04 00:15 SW 8 4.00 Fog/Mist CLR 37.4 37.4 100% 32 29.59 0.0
03 23:56 SW 6 8.00 Fair CLR 39.2 39.2 100% 36 29.59 0.0
03 23:35 SW 7 2.50 Fog/Mist CLR 39.2 39.2 100% 35 29.6 0.0
Date Time (edt) Wind (mph) Vis. (mi.) Weather Sky Cond. Air Dwpt Max. Min. Relative Humidity Wind Chill (°F) Heat Index (°F) altimeter (in) sea level (mb) 1 hr 3 hr 6 hr
6 hour
Temperature (ºF) Pressure Precipitation (in)